Time;durP1;ratioP1;P1;durP2;ratioP2;P2;SDS_P1;SDS_P2;PMS_P1;PMS_P2;Temp;Humidity;BMP_temperature;BMP_pressure;BME280_temperature;BME280_humidity;BME280_pressure;Samples;Min_cycle;Max_cycle;Signal;HPM_P1;HPM_P2
2021/06/17 00:00:54;;;;;;;5.12;3.20;;;;;;;15.88;100.00;101050.84;1710905;82;21557;-70
2021/06/17 00:03:20;;;;;;;6.58;3.47;;;;;;;15.89;100.00;101054.27;1712381;83;20956;-72
2021/06/17 00:05:47;;;;;;;5.12;3.58;;;;;;;15.88;100.00;101053.94;1712529;83;20912;-72
2021/06/17 00:08:13;;;;;;;13.90;3.58;;;;;;;15.87;100.00;101052.27;1712529;83;21000;-70
2021/06/17 00:10:45;;;;;;;4.33;3.70;;;;;;;15.88;100.00;101052.16;1712651;83;21149;-71
2021/06/17 00:13:16;;;;;;;8.40;3.90;;;;;;;15.90;100.00;101050.70;1705963;83;20979;-71
2021/06/17 00:15:45;;;;;;;8.08;3.87;;;;;;;15.89;100.00;101047.72;1712677;83;20912;-73
2021/06/17 00:18:12;;;;;;;8.50;4.15;;;;;;;15.87;100.00;101050.95;1712500;83;20967;-77
2021/06/17 00:20:39;;;;;;;10.32;4.22;;;;;;;15.85;100.00;101051.09;1712702;83;21046;-78
2021/06/17 00:23:06;;;;;;;11.63;4.33;;;;;;;15.83;100.00;101056.08;1712627;83;21467;-77
2021/06/17 00:25:33;;;;;;;5.58;4.40;;;;;;;15.78;100.00;101055.16;1712640;83;20950;-77
2021/06/17 00:27:59;;;;;;;6.10;4.22;;;;;;;15.76;100.00;101054.94;1712867;83;20998;-74
2021/06/17 00:30:26;;;;;;;8.55;4.28;;;;;;;15.75;100.00;101053.27;1712642;83;20936;-75
2021/06/17 00:32:55;;;;;;;8.20;4.25;;;;;;;15.75;100.00;101041.50;1712738;83;21003;-75
2021/06/17 00:35:24;;;;;;;8.60;4.60;;;;;;;15.78;100.00;101035.54;1712754;83;21110;-78
2021/06/17 00:37:51;;;;;;;11.53;5.12;;;;;;;15.81;100.00;101036.59;1712608;83;21600;-80
2021/06/17 00:40:17;;;;;;;8.90;4.37;;;;;;;15.85;100.00;101036.70;1712916;83;20947;-75
2021/06/17 00:42:47;;;;;;;10.45;4.30;;;;;;;15.87;100.00;101038.70;1712633;83;20956;-74
2021/06/17 00:45:18;;;;;;;9.58;4.60;;;;;;;15.92;100.00;101044.05;1712672;83;20944;-74
2021/06/17 00:47:45;;;;;;;8.55;4.92;;;;;;;15.96;100.00;101041.52;1684025;83;21843;-75
2021/06/17 00:50:12;;;;;;;8.98;4.33;;;;;;;16.00;100.00;101041.62;1712643;83;20956;-76
2021/06/17 00:52:39;;;;;;;6.50;4.50;;;;;;;16.03;100.00;101047.44;1712779;83;21034;-79
2021/06/17 00:55:07;;;;;;;10.78;4.10;;;;;;;16.07;100.00;101041.47;1712743;83;20900;-74
2021/06/17 00:57:34;;;;;;;9.68;4.45;;;;;;;16.12;100.00;101041.43;1712668;83;20943;-75
2021/06/17 01:00:00;;;;;;;7.55;4.97;;;;;;;16.16;100.00;101049.39;1717946;82;21104;-75
2021/06/17 01:02:27;;;;;;;17.55;5.00;;;;;;;16.21;100.00;101043.78;1733220;82;21441;-75
2021/06/17 01:04:53;;;;;;;11.65;4.55;;;;;;;16.25;100.00;101043.86;1733288;82;21007;-79
2021/06/17 01:07:38;;;;;;;9.00;4.70;;;;;;;16.27;100.00;101036.22;1733476;82;20994;-75
2021/06/17 01:10:45;;;;;;;12.47;4.80;;;;;;;16.30;100.00;101033.37;1715983;82;21111;-76
2021/06/17 01:13:42;;;;;;;11.78;4.85;;;;;;;16.33;100.00;101042.75;1733401;82;21093;-72
2021/06/17 01:16:31;;;;;;;9.30;4.65;;;;;;;16.37;100.00;101044.13;1733231;82;21064;-72
2021/06/17 01:19:01;;;;;;;14.85;5.53;;;;;;;16.42;100.00;101052.45;1733324;81;21477;-75
2021/06/17 01:22:08;;;;;;;10.08;4.65;;;;;;;16.48;100.00;101051.94;1733388;82;21010;-75
2021/06/17 01:25:15;;;;;;;9.20;4.60;;;;;;;16.53;100.00;101061.53;1733433;82;20990;-69
2021/06/17 01:28:07;;;;;;;11.12;5.20;;;;;;;16.61;100.00;101064.86;1733513;82;21112;-75
2021/06/17 01:30:54;;;;;;;8.65;5.00;;;;;;;16.66;100.00;101084.46;1733443;82;21422;-73
2021/06/17 01:33:24;;;;;;;6.58;5.00;;;;;;;16.72;100.00;101085.76;1733423;82;20990;-75
2021/06/17 01:35:58;;;;;;;11.23;5.73;;;;;;;16.76;100.00;101095.00;1733558;82;20993;-71
2021/06/17 01:38:24;;;;;;;11.97;4.83;;;;;;;16.79;100.00;101091.64;1733565;82;21720;-71
2021/06/17 01:40:51;;;;;;;10.53;4.92;;;;;;;16.85;100.00;101093.73;1733473;82;21119;-71
2021/06/17 01:43:19;;;;;;;10.18;4.80;;;;;;;16.90;100.00;101099.91;1679172;82;21674;-71
2021/06/17 01:45:46;;;;;;;5.70;5.00;;;;;;;16.93;100.00;101102.27;1733307;82;20943;-73
2021/06/17 01:48:14;;;;;;;6.25;4.75;;;;;;;16.97;100.00;101105.45;1733337;82;20990;-70
2021/06/17 01:50:46;;;;;;;7.65;4.90;;;;;;;16.99;100.00;101107.45;1733445;82;21049;-74
2021/06/17 01:53:16;;;;;;;7.62;5.40;;;;;;;17.03;100.00;101116.25;1733229;82;21985;-72
2021/06/17 01:55:43;;;;;;;9.40;5.08;;;;;;;17.05;100.00;101115.63;1700567;82;20938;-73
2021/06/17 01:58:13;;;;;;;12.50;5.17;;;;;;;17.07;100.00;101118.94;1733104;82;20911;-73
2021/06/17 02:00:44;;;;;;;13.43;4.97;;;;;;;17.09;100.00;101113.10;1725963;81;21003;-74
2021/06/17 02:03:11;;;;;;;9.85;5.35;;;;;;;17.12;100.00;101114.63;1692986;83;21079;-73
2021/06/17 02:05:38;;;;;;;6.55;5.15;;;;;;;17.14;100.00;101105.66;1722806;83;21845;-76
2021/06/17 02:08:07;;;;;;;7.40;5.00;;;;;;;17.13;100.00;101101.39;1693209;83;21455;-75
2021/06/17 02:10:34;;;;;;;10.23;5.62;;;;;;;17.13;100.00;101094.84;1693328;83;21435;-74
2021/06/17 02:13:01;;;;;;;8.33;4.78;;;;;;;17.14;100.00;101091.70;1715584;83;21075;-75
2021/06/17 02:15:29;;;;;;;8.95;5.05;;;;;;;17.15;100.00;101106.49;1715504;83;21097;-73
2021/06/17 02:17:56;;;;;;;7.05;5.72;;;;;;;17.15;100.00;101100.77;1715515;83;21113;-74
2021/06/17 02:20:23;;;;;;;11.15;5.65;;;;;;;17.15;100.00;101102.55;1715590;83;21414;-74
2021/06/17 02:22:53;;;;;;;7.90;5.03;;;;;;;17.15;100.00;101106.49;1715517;83;21121;-75
2021/06/17 02:25:21;;;;;;;9.55;5.30;;;;;;;17.14;100.00;101112.21;1722532;83;21545;-77
2021/06/17 02:27:51;;;;;;;7.10;4.90;;;;;;;17.15;100.00;101110.42;1715537;83;20912;-74
2021/06/17 02:30:18;;;;;;;7.42;5.35;;;;;;;17.14;100.00;101116.62;1695970;83;21259;-72
2021/06/17 02:32:51;;;;;;;9.50;5.35;;;;;;;17.13;100.00;101114.51;1715428;83;20884;-75
2021/06/17 02:35:23;;;;;;;8.53;5.78;;;;;;;17.15;100.00;101110.42;1715672;83;21082;-74
2021/06/17 02:37:54;;;;;;;7.00;5.50;;;;;;;17.15;100.00;101102.55;1722841;83;21074;-74
2021/06/17 02:40:22;;;;;;;6.25;5.28;;;;;;;17.13;100.00;101105.33;1715590;83;20959;-76
2021/06/17 02:42:48;;;;;;;7.45;5.50;;;;;;;17.14;100.00;101103.52;1715532;83;21811;-70
2021/06/17 02:45:15;;;;;;;10.88;5.95;;;;;;;17.15;100.00;101101.25;1693419;83;20885;-68
2021/06/17 02:47:42;;;;;;;9.43;5.70;;;;;;;17.15;100.00;101102.55;1715616;83;20999;-70
2021/06/17 02:50:11;;;;;;;9.00;5.65;;;;;;;17.12;100.00;101091.86;1715268;83;21022;-72
2021/06/17 02:52:40;;;;;;;10.08;5.25;;;;;;;17.10;100.00;101083.30;1715481;83;21530;-72
2021/06/17 02:55:08;;;;;;;6.40;5.53;;;;;;;17.09;100.00;101079.02;1715527;83;21764;-73
2021/06/17 02:57:57;;;;;;;12.70;11.43;;;;;;;17.09;100.00;101086.05;1693730;83;20892;-69
2021/06/17 03:00:28;;;;;;;6.20;5.60;;;;;;;17.06;100.00;101071.41;1715402;83;21538;-70
2021/06/17 03:03:17;;;;;;;7.25;6.03;;;;;;;17.04;100.00;101072.00;1715248;83;21002;-71
2021/06/17 03:05:54;;;;;;;6.10;5.35;;;;;;;17.04;100.00;101069.38;1715166;83;21011;-70
2021/06/17 03:08:38;;;;;;;7.25;5.40;;;;;;;17.01;100.00;101072.27;1715295;83;21490;-72
2021/06/17 03:11:12;;;;;;;7.65;5.58;;;;;;;17.00;100.00;101072.42;1715046;83;20895;-73
2021/06/17 03:13:42;;;;;;;6.78;5.53;;;;;;;17.00;100.00;101085.05;1715251;83;20959;-73
2021/06/17 03:16:14;;;;;;;7.97;4.95;;;;;;;17.01;100.00;101089.83;1715147;83;21482;-74
2021/06/17 03:18:40;;;;;;;7.28;5.53;;;;;;;17.01;100.00;101091.94;1715144;83;20927;-73
2021/06/17 03:21:07;;;;;;;12.65;5.47;;;;;;;17.03;100.00;101101.00;1692966;83;21469;-74
2021/06/17 03:23:33;;;;;;;9.03;5.50;;;;;;;17.05;100.00;101103.00;1715155;83;21581;-71
2021/06/17 03:26:05;;;;;;;6.20;5.62;;;;;;;17.06;100.00;101096.80;1715304;83;20987;-70
2021/06/17 03:28:31;;;;;;;8.95;5.92;;;;;;;17.07;100.00;101104.52;1714985;83;20952;-76
2021/06/17 03:30:58;;;;;;;7.42;5.35;;;;;;;17.08;100.00;101123.23;1715171;83;21561;-73
2021/06/17 03:33:27;;;;;;;7.90;5.80;;;;;;;17.13;100.00;101125.48;1715197;83;20959;-76
2021/06/17 03:35:54;;;;;;;7.62;5.87;;;;;;;17.20;100.00;101133.17;1715026;83;20944;-69
2021/06/17 03:38:21;;;;;;;9.13;5.55;;;;;;;17.25;100.00;101147.54;1715169;83;20955;-71
2021/06/17 03:40:50;;;;;;;10.98;5.55;;;;;;;17.28;100.00;101144.66;1715061;83;21081;-72
2021/06/17 03:43:17;;;;;;;7.25;5.78;;;;;;;17.33;100.00;101145.55;1717097;82;20908;-71
2021/06/17 03:45:43;;;;;;;6.33;5.60;;;;;;;17.38;100.00;101149.94;1715331;83;21753;-72
2021/06/17 03:48:12;;;;;;;11.22;5.67;;;;;;;17.40;100.00;101150.14;1715033;83;20956;-69
2021/06/17 03:50:39;;;;;;;9.15;5.17;;;;;;;17.45;100.00;101149.25;1693283;83;20986;-72
2021/06/17 03:53:06;;;;;;;5.60;5.03;;;;;;;17.48;100.00;101148.66;1715277;83;20944;-75
2021/06/17 03:55:34;;;;;;;7.03;5.30;;;;;;;17.52;100.00;101142.18;1715088;83;21609;-72
2021/06/17 03:58:01;;;;;;;12.33;5.95;;;;;;;17.55;100.00;101138.81;1715233;83;21115;-75
2021/06/17 04:00:32;;;;;;;9.28;5.62;;;;;;;17.60;100.00;101139.73;1714795;82;20982;-76
2021/06/17 04:03:00;;;;;;;8.73;5.12;;;;;;;17.65;100.00;101142.77;1712709;83;20948;-75
2021/06/17 04:05:27;;;;;;;7.65;5.33;;;;;;;17.71;100.00;101140.95;1688510;83;20881;-75
2021/06/17 04:07:58;;;;;;;6.90;5.37;;;;;;;17.77;100.00;101146.97;1712702;83;21524;-75
2021/06/17 04:10:26;;;;;;;7.72;5.33;;;;;;;17.82;100.00;101142.13;1712624;83;22486;-78
2021/06/17 04:12:56;;;;;;;9.98;5.10;;;;;;;17.85;100.00;101143.16;1712463;83;21017;-72
2021/06/17 04:15:26;;;;;;;9.43;5.65;;;;;;;17.87;100.00;101142.53;1688863;83;21008;-78
2021/06/17 04:17:57;;;;;;;7.85;4.83;;;;;;;17.89;100.00;101144.56;1712823;83;20964;-80
2021/06/17 04:20:33;;;;;;;7.30;4.95;;;;;;;17.92;100.00;101141.66;1712770;83;20857;-75
2021/06/17 04:23:01;;;;;;;7.70;4.90;;;;;;;17.95;100.00;101147.47;1712649;83;21771;-74
2021/06/17 04:25:28;;;;;;;7.92;4.90;;;;;;;18.01;100.00;101153.13;1712469;83;21015;-73
2021/06/17 04:28:00;;;;;;;6.87;4.22;;;;;;;18.03;100.00;101156.47;1712678;83;21055;-77
2021/06/17 04:30:28;;;;;;;7.45;4.40;;;;;;;18.03;100.00;101161.72;1712685;83;21647;-79
2021/06/17 04:32:57;;;;;;;10.45;5.17;;;;;;;18.09;100.00;101158.55;1712756;83;20943;-73
2021/06/17 04:35:24;;;;;;;5.50;5.00;;;;;;;18.15;100.00;101154.05;1689243;83;22000;-79
2021/06/17 04:37:51;;;;;;;8.18;4.17;;;;;;;18.22;100.00;101166.48;1712449;83;20987;-75
2021/06/17 04:40:21;;;;;;;9.80;3.92;;;;;;;18.32;100.00;101169.94;1712935;83;21054;-73
2021/06/17 04:42:50;;;;;;;5.87;4.05;;;;;;;18.38;100.00;101165.92;1712575;82;20869;-79
2021/06/17 04:45:17;;;;;;;5.70;4.15;;;;;;;18.41;100.00;101159.91;1712006;82;21114;-73
2021/06/17 04:47:49;;;;;;;6.72;4.12;;;;;;;18.39;100.00;101164.97;1712681;83;21138;-76
2021/06/17 04:50:14;;;;;;;6.90;3.75;;;;;;;18.37;100.00;101176.11;1712520;83;20899;-74
2021/06/17 04:52:52;;;;;;;7.80;4.00;;;;;;;18.37;100.00;101174.80;1712659;82;21558;-80
2021/06/17 04:55:19;;;;;;;4.90;3.83;;;;;;;18.34;100.00;101172.45;1706728;83;21191;-72
2021/06/17 04:57:46;;;;;;;8.35;3.58;;;;;;;18.30;100.00;101177.14;1712660;83;21471;-75
2021/06/17 05:00:14;;;;;;;6.35;4.00;;;;;;;18.26;100.00;101179.69;1712793;83;21151;-71
2021/06/17 05:02:40;;;;;;;9.53;5.97;;;;;;;18.25;100.00;101183.78;1729978;82;20934;-74
2021/06/17 05:05:08;;;;;;;5.97;3.62;;;;;;;18.18;100.00;101183.50;1733252;81;20907;-73
2021/06/17 05:12:48;;;;;;;6.10;3.40;;;;;;;18.23;100.00;101181.77;1733458;81;21138;-75
2021/06/17 05:15:15;;;;;;;7.10;3.40;;;;;;;18.27;100.00;101191.03;1733349;82;20979;-80
2021/06/17 05:17:42;;;;;;;5.67;3.45;;;;;;;18.29;100.00;101190.41;1733525;82;20990;-75
2021/06/17 05:20:10;;;;;;;3.65;2.90;;;;;;;18.29;100.00;101190.41;1733275;82;21540;-75
2021/06/17 05:22:37;;;;;;;3.62;2.92;;;;;;;18.30;100.00;101202.58;1733411;82;21033;-75
2021/06/17 05:25:05;;;;;;;4.67;3.52;;;;;;;18.35;100.00;101207.77;1702444;82;21776;-74
2021/06/17 05:27:31;;;;;;;7.92;3.87;;;;;;;18.40;100.00;101205.57;1733246;82;21553;-75
2021/06/17 05:29:58;;;;;;;3.77;3.33;;;;;;;18.50;100.00;101217.43;1733706;82;20943;-71
2021/06/17 05:32:25;;;;;;;5.03;3.12;;;;;;;18.57;100.00;101222.96;1733481;82;20967;-75
2021/06/17 05:34:52;;;;;;;5.17;2.72;;;;;;;18.57;100.00;101223.77;1733241;81;21050;-75
2021/06/17 05:37:19;;;;;;;5.85;2.92;;;;;;;18.60;100.00;101230.09;1733423;82;21141;-76
2021/06/17 05:39:46;;;;;;;4.50;3.35;;;;;;;18.62;100.00;101228.62;1733215;81;20852;-75
2021/06/17 05:42:13;;;;;;;4.65;2.60;;;;;;;18.64;100.00;101233.24;1733576;82;20972;-78
2021/06/17 05:44:44;;;;;;;5.90;2.87;;;;;;;18.70;100.00;101239.29;1733322;81;21037;-76
2021/06/17 05:47:13;;;;;;;3.80;2.77;;;;;;;18.73;100.00;101241.64;1733290;81;21121;-77
2021/06/17 05:49:39;;;;;;;3.85;2.98;;;;;;;18.76;100.00;101242.16;1733344;81;21662;-73
2021/06/17 05:52:07;;;;;;;2.83;2.55;;;;;;;18.80;100.00;101253.23;1733123;82;20887;-79
2021/06/17 05:54:34;;;;;;;5.75;2.25;;;;;;;18.85;100.00;101257.13;1733369;82;20934;-76
2021/06/17 05:57:00;;;;;;;4.90;2.75;;;;;;;18.91;100.00;101254.41;1702401;82;21061;-75
2021/06/17 05:59:27;;;;;;;5.40;3.00;;;;;;;18.98;100.00;101255.52;1733341;81;21085;-74
2021/06/17 06:01:54;;;;;;;5.17;2.95;;;;;;;19.03;100.00;101255.43;1726193;81;21982;-75
2021/06/17 06:04:21;;;;;;;5.20;2.50;;;;;;;19.13;100.00;101261.16;1715663;81;21510;-78
2021/06/17 06:06:47;;;;;;;4.40;2.90;;;;;;;19.18;100.00;101256.28;1715226;81;20957;-77
2021/06/17 06:09:14;;;;;;;5.12;2.67;;;;;;;19.23;100.00;101255.39;1715576;81;21008;-74
2021/06/17 06:11:40;;;;;;;6.08;3.30;;;;;;;19.33;100.00;101254.41;1628508;81;21862;-74
2021/06/17 06:14:08;;;;;;;3.10;2.22;;;;;;;19.46;100.00;101259.38;1714358;81;21097;-74
2021/06/17 06:16:35;;;;;;;4.62;2.30;;;;;;;19.60;100.00;101262.01;1714588;83;21002;-75
2021/06/17 06:19:06;;;;;;;6.50;2.92;;;;;;;19.68;100.00;101271.34;1714558;81;21190;-74
2021/06/17 06:21:33;;;;;;;8.95;3.10;;;;;;;19.74;100.00;101273.39;1722303;83;21054;-80
2021/06/17 06:24:00;;;;;;;6.83;3.12;;;;;;;19.73;100.00;101276.52;1714364;81;21066;-76
2021/06/17 06:26:28;;;;;;;5.47;3.10;;;;;;;19.74;100.00;101280.81;1714087;83;21129;-73
2021/06/17 06:28:56;;;;;;;3.50;2.83;;;;;;;19.77;100.00;101283.16;1714993;81;20967;-75
2021/06/17 06:31:23;;;;;;;7.72;3.30;;;;;;;19.85;100.00;101278.45;1722178;81;20919;-79
2021/06/17 06:33:50;;;;;;;6.45;3.27;;;;;;;19.94;100.00;101277.09;1720848;81;21628;-81
2021/06/17 06:36:19;;;;;;;5.22;3.15;;;;;;;20.01;100.00;101270.27;1722478;81;21114;-74
2021/06/17 06:38:47;;;;;;;4.03;2.70;;;;;;;20.06;100.00;101268.52;1730688;82;21514;-76
2021/06/17 06:41:14;;;;;;;3.17;2.70;;;;;;;20.10;100.00;101265.94;1743676;82;21003;-77
2021/06/17 06:43:40;;;;;;;3.87;3.00;;;;;;;20.15;100.00;101265.48;1743992;82;21042;-76
2021/06/17 06:46:07;;;;;;;5.10;2.83;;;;;;;20.24;100.00;101269.86;1743359;82;21074;-72
2021/06/17 06:48:34;;;;;;;5.22;3.10;;;;;;;20.34;100.00;101265.38;1744241;82;20951;-76
2021/06/17 06:51:01;;;;;;;3.50;2.72;;;;;;;20.44;100.00;101268.78;1744351;82;21106;-73
2021/06/17 06:53:28;;;;;;;11.33;2.72;;;;;;;20.54;99.95;101272.19;1744105;82;20979;-78
2021/06/17 06:55:55;;;;;;;5.28;3.10;;;;;;;20.64;97.82;101265.52;1743477;82;21042;-76
2021/06/17 06:58:22;;;;;;;3.52;2.85;;;;;;;20.73;97.04;101263.28;1743263;82;21084;-76
2021/06/17 07:00:53;;;;;;;3.20;2.90;;;;;;;20.81;95.15;101258.89;1743653;82;21058;-82
2021/06/17 07:03:22;;;;;;;2.98;2.67;;;;;;;20.87;93.80;101260.92;1720509;82;21093;-76
2021/06/17 07:05:48;;;;;;;4.12;2.72;;;;;;;20.92;93.36;101258.67;1718152;82;21058;-73
2021/06/17 07:08:17;;;;;;;5.85;2.37;;;;;;;20.98;92.37;101256.73;1737663;81;21106;-75
2021/06/17 07:10:50;;;;;;;5.28;2.90;;;;;;;21.06;92.57;101263.38;1737242;82;21027;-79
2021/06/17 07:13:17;;;;;;;5.05;2.42;;;;;;;21.14;92.84;101267.09;1738094;82;21220;-72
2021/06/17 07:15:45;;;;;;;4.17;2.90;;;;;;;21.18;89.06;101266.64;1731166;81;21967;-78
2021/06/17 07:18:15;;;;;;;2.80;2.50;;;;;;;21.24;90.29;101261.22;1714303;82;21040;-80
2021/06/17 07:20:42;;;;;;;4.33;2.47;;;;;;;21.30;90.25;101261.92;1729559;82;21463;-74
2021/06/17 07:23:09;;;;;;;4.60;2.95;;;;;;;21.33;87.74;101263.75;1730659;81;20955;-80
2021/06/17 07:25:38;;;;;;;5.35;2.47;;;;;;;21.37;88.85;101265.11;1730293;82;21058;-76
2021/06/17 07:28:06;;;;;;;3.67;3.22;;;;;;;21.42;87.94;101264.13;1730193;82;21126;-80
2021/06/17 07:30:36;;;;;;;3.50;3.00;;;;;;;21.46;87.24;101266.81;1702638;82;20983;-77
2021/06/17 07:33:03;;;;;;;8.13;2.98;;;;;;;21.50;87.08;101264.69;1701104;84;21074;-73
2021/06/17 07:35:31;;;;;;;8.80;4.30;;;;;;;21.59;88.69;101264.56;1708172;83;21066;-76
2021/06/17 07:37:58;;;;;;;10.82;5.20;;;;;;;21.75;90.72;101268.27;1680255;84;21452;-73
2021/06/17 07:40:25;;;;;;;11.55;5.03;;;;;;;21.85;88.98;101260.55;1707382;83;21122;-78
2021/06/17 07:42:52;;;;;;;4.90;3.02;;;;;;;21.93;88.83;101250.52;1701864;82;20983;-77
2021/06/17 07:45:19;;;;;;;6.53;3.17;;;;;;;21.96;86.59;101252.84;1707706;83;21062;-76
2021/06/17 07:47:47;;;;;;;3.87;2.85;;;;;;;22.02;87.64;101254.84;1701763;83;21050;-73
2021/06/17 07:50:15;;;;;;;3.58;2.77;;;;;;;22.05;84.91;101255.34;1701080;83;21054;-72
2021/06/17 07:52:43;;;;;;;3.75;2.50;;;;;;;22.09;86.65;101255.37;1708537;83;21115;-78
2021/06/17 07:55:10;;;;;;;4.92;2.77;;;;;;;22.16;85.89;101248.94;1701230;83;21043;-77
2021/06/17 07:57:38;;;;;;;5.17;3.25;;;;;;;22.20;87.11;101262.18;1678902;84;21030;-72
2021/06/17 08:00:08;;;;;;;5.58;2.90;;;;;;;22.24;85.51;101260.84;1707803;83;21134;-79
2021/06/17 08:02:37;;;;;;;5.40;3.20;;;;;;;22.31;85.88;101263.67;1710602;83;21046;-74
2021/06/17 08:05:06;;;;;;;2.72;2.42;;;;;;;22.37;86.45;101259.08;1711401;82;21146;-72
2021/06/17 08:07:33;;;;;;;5.65;2.95;;;;;;;22.41;84.42;101256.41;1711964;83;21014;-76
2021/06/17 08:09:59;;;;;;;5.20;2.67;;;;;;;22.39;84.75;101247.83;1711289;83;21054;-73
2021/06/17 08:12:29;;;;;;;3.77;2.60;;;;;;;22.37;83.41;101252.47;1711517;83;21688;-81
2021/06/17 08:14:55;;;;;;;6.55;3.10;;;;;;;22.39;84.06;101251.80;1710581;82;21557;-76
2021/06/17 08:17:23;;;;;;;4.92;2.85;;;;;;;22.46;82.79;101250.96;1711128;83;22136;-80
2021/06/17 08:19:50;;;;;;;4.15;2.85;;;;;;;22.51;82.63;101251.31;1711510;83;21142;-73
2021/06/17 08:22:17;;;;;;;6.97;3.25;;;;;;;22.55;83.22;101243.39;1712467;83;21588;-77
2021/06/17 08:24:44;;;;;;;7.50;3.12;;;;;;;22.58;83.48;101240.91;1711318;83;21086;-77
2021/06/17 08:27:11;;;;;;;3.15;2.80;;;;;;;22.65;83.68;101243.23;1711707;83;21071;-73
2021/06/17 08:29:39;;;;;;;4.05;2.98;;;;;;;22.73;83.56;101243.73;1711506;83;21052;-78
2021/06/17 08:32:06;;;;;;;7.15;4.60;;;;;;;22.78;83.23;101238.30;1712157;82;21128;-75
2021/06/17 08:34:37;;;;;;;5.75;3.47;;;;;;;22.94;83.98;101244.88;1711939;83;21616;-80
2021/06/17 08:37:05;;;;;;;4.10;2.90;;;;;;;23.13;83.65;101251.66;1711107;82;21098;-77
2021/06/17 08:39:33;;;;;;;3.95;3.00;;;;;;;23.25;82.46;101238.39;1711481;83;20955;-75
2021/06/17 08:42:02;;;;;;;4.97;3.08;;;;;;;23.35;80.91;101242.17;1711349;82;21812;-76
2021/06/17 08:44:29;;;;;;;7.15;3.12;;;;;;;23.39;80.31;101245.62;1711469;83;20994;-79
2021/06/17 08:46:57;;;;;;;3.37;2.92;;;;;;;23.44;81.07;101247.80;1711669;83;20963;-76
2021/06/17 08:49:27;;;;;;;4.62;3.45;;;;;;;23.50;79.29;101249.27;1711167;83;21130;-79
2021/06/17 08:51:58;;;;;;;6.87;3.72;;;;;;;23.55;80.14;101251.39;1711748;83;21787;-75
2021/06/17 08:54:26;;;;;;;4.35;2.75;;;;;;;23.56;79.46;101251.73;1711344;83;21102;-73
2021/06/17 08:56:54;;;;;;;8.30;3.40;;;;;;;23.52;79.19;101250.41;1711518;83;20936;-77
2021/06/17 08:59:38;;;;;;;6.72;3.00;;;;;;;23.47;79.27;101254.09;1711532;83;21053;-81
2021/06/17 09:02:05;;;;;;;8.90;3.10;;;;;;;23.41;79.08;101260.90;1720218;82;21019;-77
2021/06/17 09:04:32;;;;;;;5.85;3.67;;;;;;;23.40;79.13;101259.23;1730121;82;21067;-76
2021/06/17 09:07:11;;;;;;;4.67;3.20;;;;;;;23.40;80.10;101254.43;1713725;83;20880;-77
2021/06/17 09:09:43;;;;;;;6.33;3.10;;;;;;;23.42;79.46;101263.85;1713902;83;21548;-77
2021/06/17 09:12:17;;;;;;;6.10;2.90;;;;;;;23.47;80.17;101267.33;1730846;82;21097;-78
2021/06/17 09:14:55;;;;;;;3.67;2.85;;;;;;;23.49;79.85;101270.13;1713811;83;21111;-72
2021/06/17 09:17:20;;;;;;;4.78;3.05;;;;;;;23.46;79.20;101276.27;1646059;83;21094;-77
2021/06/17 09:19:50;;;;;;;8.60;4.58;;;;;;;23.38;78.37;101269.16;1713630;83;21093;-73
2021/06/17 09:22:20;;;;;;;33.05;10.75;;;;;;;23.31;77.41;101273.47;1713728;83;21038;-74
2021/06/17 09:24:51;;;;;;;14.30;5.62;;;;;;;23.25;78.69;101270.66;1714074;83;21003;-78
2021/06/17 09:27:39;;;;;;;10.38;3.92;;;;;;;23.18;78.37;101277.13;1714213;83;21078;-77
2021/06/17 09:30:19;;;;;;;30.00;8.93;;;;;;;23.14;79.28;101270.02;1713502;83;21357;-83
2021/06/17 09:33:41;;;;;;;13.10;4.60;;;;;;;23.11;80.38;101279.62;1713516;83;21264;-81
2021/06/17 09:36:08;;;;;;;20.00;6.62;;;;;;;23.08;81.02;101275.15;1713997;83;21064;-76
2021/06/17 09:38:54;;;;;;;6.03;3.20;;;;;;;23.00;81.49;101280.47;1713912;83;21057;-74
2021/06/17 09:41:44;;;;;;;7.65;3.02;;;;;;;22.90;79.51;101283.28;1713805;83;21074;-76
2021/06/17 09:44:40;;;;;;;4.78;3.15;;;;;;;22.83;81.42;101279.64;1713390;83;21129;-76
2021/06/17 09:47:09;;;;;;;48.33;14.35;;;;;;;22.77;81.76;101283.44;1712584;83;21109;-75
2021/06/17 09:49:40;;;;;;;16.30;7.10;;;;;;;22.73;83.85;101295.34;1677305;83;38319;-75
2021/06/17 09:52:08;;;;;;;4.45;3.75;;;;;;;22.75;84.52;101290.73;1714163;83;21086;-78
2021/06/17 09:54:39;;;;;;;6.42;4.15;;;;;;;22.75;84.28;101287.56;1713777;83;21028;-79
2021/06/17 09:57:08;;;;;;;10.93;3.98;;;;;;;22.74;84.17;101291.22;1713391;83;21109;-76
2021/06/17 09:59:45;;;;;;;8.35;4.40;;;;;;;22.75;83.48;101293.38;1714245;83;21644;-81
2021/06/17 10:02:22;;;;;;;6.97;4.40;;;;;;;22.72;83.63;101292.38;1710088;83;21026;-79
2021/06/17 10:04:47;;;;;;;5.75;3.05;;;;;;;22.71;83.54;101292.03;1714243;83;20982;-75
2021/06/17 10:07:20;;;;;;;4.95;2.87;;;;;;;22.70;84.23;101295.17;1691219;83;21098;-73
2021/06/17 10:09:49;;;;;;;15.65;4.83;;;;;;;22.70;81.77;101298.31;1714538;83;21070;-75
2021/06/17 10:12:18;;;;;;;5.00;3.52;;;;;;;22.70;82.33;101293.02;1714858;83;21084;-74
2021/06/17 10:14:46;;;;;;;6.85;3.60;;;;;;;22.72;82.27;101293.17;1714664;83;21007;-77
2021/06/17 10:17:16;;;;;;;8.90;4.60;;;;;;;22.75;81.40;101288.08;1714154;83;20970;-77
2021/06/17 10:19:42;;;;;;;5.05;3.52;;;;;;;22.78;81.60;101285.94;1713955;83;21048;-81
2021/06/17 10:22:10;;;;;;;4.25;3.42;;;;;;;22.82;82.02;101281.94;1713804;83;21070;-78
2021/06/17 10:24:39;;;;;;;3.45;2.83;;;;;;;22.81;81.97;101280.80;1713819;83;21117;-74
2021/06/17 10:27:10;;;;;;;5.15;3.60;;;;;;;22.84;81.63;101281.30;1691325;83;21074;-78
2021/06/17 10:29:44;;;;;;;4.72;3.60;;;;;;;22.86;82.05;101285.09;1713681;83;21002;-73
2021/06/17 10:32:17;;;;;;;3.47;2.90;;;;;;;22.88;81.45;101278.63;1691391;83;21090;-78
2021/06/17 10:34:54;;;;;;;5.12;3.10;;;;;;;22.88;81.31;101276.51;1713769;83;21038;-75
2021/06/17 10:37:29;;;;;;;3.80;2.95;;;;;;;22.85;79.99;101266.22;1713719;83;21139;-76
2021/06/17 10:40:13;;;;;;;4.58;3.20;;;;;;;22.85;79.49;101269.70;1713845;83;21054;-74
2021/06/17 10:42:47;;;;;;;5.28;3.20;;;;;;;22.89;80.12;101271.03;1714018;83;21086;-78
2021/06/17 10:45:39;;;;;;;6.70;3.20;;;;;;;22.89;79.52;101266.23;1713527;83;21577;-75
2021/06/17 10:48:12;;;;;;;;;;;;;;;22.91;80.49;101261.61;1735275;82;21427;-77
2021/06/17 10:51:05;;;;;;;8.45;3.58;;;;;;;22.97;80.63;101259.13;1743252;82;21794;-80
2021/06/17 10:53:44;;;;;;;3.08;2.70;;;;;;;23.01;78.94;101254.30;1743170;82;21617;-74
2021/06/17 10:56:26;;;;;;;7.45;3.00;;;;;;;23.04;77.97;101252.64;1743070;82;21126;-81
2021/06/17 10:58:56;;;;;;;4.78;3.15;;;;;;;23.05;76.94;101248.52;1733599;82;21015;-75
2021/06/17 11:01:40;;;;;;;4.05;2.87;;;;;;;23.12;77.40;101248.19;1728561;82;21086;-74
2021/06/17 11:04:36;;;;;;;3.95;2.60;;;;;;;23.20;76.66;101247.33;1740404;82;21152;-73
2021/06/17 11:07:10;;;;;;;7.03;3.58;;;;;;;23.24;76.39;101243.84;1740567;81;21692;-73
2021/06/17 11:09:47;;;;;;;3.67;3.02;;;;;;;23.25;76.94;101251.63;1740704;82;21546;-76
2021/06/17 11:12:25;;;;;;;5.50;3.90;;;;;;;23.26;76.47;101252.47;1740415;82;21115;-72
2021/06/17 11:14:57;;;;;;;8.08;4.17;;;;;;;23.23;75.71;101248.83;1740249;82;21242;-72
2021/06/17 11:17:35;;;;;;;10.45;5.08;;;;;;;23.20;76.80;101260.56;1740609;81;21004;-75
2021/06/17 11:20:19;;;;;;;7.83;3.90;;;;;;;23.20;77.86;101256.59;1740927;81;21028;-73
2021/06/17 11:22:48;;;;;;;;;;;;;;;23.26;77.75;101251.97;1742905;81;21551;-74
2021/06/17 11:25:22;;;;;;;7.95;4.00;;;;;;;23.29;77.07;101252.12;1740657;82;20621;-77
2021/06/17 11:28:06;;;;;;;6.90;3.83;;;;;;;23.25;76.87;101248.98;1740720;81;21057;-79
2021/06/17 11:30:46;;;;;;;4.28;3.50;;;;;;;23.27;77.42;101245.66;1732805;82;21255;-76
2021/06/17 11:33:26;;;;;;;4.90;3.27;;;;;;;23.29;77.03;101247.66;1723332;81;21026;-72
2021/06/17 11:36:00;;;;;;;7.72;3.85;;;;;;;23.31;76.00;101246.15;1710187;83;21081;-73
2021/06/17 11:38:34;;;;;;;5.12;3.60;;;;;;;23.32;75.02;101249.14;1710702;83;21107;-73
2021/06/17 11:41:22;;;;;;;3.87;3.58;;;;;;;23.36;75.32;101246.45;1710487;83;21070;-73